CYQU

Grande Prairie Airport

Grande Prairie, Alberta, Canada
METAR CYQU 181000Z 31003KT 25SM FEW100 FEW230 12/10 A3002 RMK AC1CI1 SLP169 DENSITY ALT 2300FT
Observed Flight Rules
Jun-18 @ 10:00 UTC (an hour ago) Visual Flight Rules
Wind Visibility Clouds
310° at 3 knots 25 miles
  • Few at 10,000' AGL
  • Few at 23,000' AGL
Temperatures Readings
Current 12°C / 54°F
Dewpoint 10°C / 50°F
Humidity 88%
Altimeter 30.02" Hg
Pressure 1016.9 hPa
Elevation 669
METAR CYQU 181000Z 31003KT 25SM FEW100 FEW230 12/10 A3002 RMK AC1CI1 SLP169 DENSITY ALT 2300FT
Observed Flight Rules
Jun-18 @ 10:00 UTC
(an hour ago)
VFR
Wind Visibility
310° at 3 knots 25 miles
Clouds
  • Few at 10,000' AGL
  • Few at 23,000' AGL
Temperature Dewpoint
12°C / 54°F 10°C / 50°F
Humidity Altimeter Pressure
88% 30.02" Hg 1016.9 hPa